Time;durP1;ratioP1;P1;durP2;ratioP2;P2;SDS_P1;SDS_P2;PMS_P1;PMS_P2;Temp;Humidity;BMP_temperature;BMP_pressure;BME280_temperature;BME280_humidity;BME280_pressure;Samples;Min_cycle;Max_cycle;Signal;HPM_P1;HPM_P2
2021/06/08 00:00:26;;;;;;;6.07;5.47;;;16.40;99.90;;;;;;5059116;28;20029;-88
2021/06/08 00:02:55;;;;;;;7.25;5.22;;;16.40;99.90;;;;;;5059788;28;20044;-90
2021/06/08 00:05:21;;;;;;;7.18;5.60;;;16.40;99.90;;;;;;5059659;28;20036;-89
2021/06/08 00:07:49;;;;;;;7.68;5.90;;;16.40;99.90;;;;;;5069028;28;20041;-89
2021/06/08 00:10:15;;;;;;;6.15;5.47;;;16.40;99.90;;;;;;5079708;28;20025;-89
2021/06/08 00:12:41;;;;;;;5.55;5.03;;;16.30;99.90;;;;;;5079607;28;20084;-89
2021/06/08 00:15:08;;;;;;;7.38;5.55;;;16.30;99.90;;;;;;5079599;28;20013;-89
2021/06/08 00:17:34;;;;;;;7.88;5.85;;;16.30;99.90;;;;;;5079682;28;20044;-90
2021/06/08 00:20:01;;;;;;;7.95;6.10;;;16.20;99.90;;;;;;5071500;28;20090;-89
2021/06/08 00:22:27;;;;;;;8.13;6.03;;;16.20;99.90;;;;;;5058677;28;20025;-89
2021/06/08 00:24:53;;;;;;;8.57;6.20;;;16.10;99.90;;;;;;5062398;28;20029;-89
2021/06/08 00:27:19;;;;;;;6.40;5.80;;;16.10;99.90;;;;;;5058949;28;20063;-88
2021/06/08 00:29:45;;;;;;;6.90;6.00;;;16.00;99.90;;;;;;5060025;28;20021;-89
2021/06/08 00:32:10;;;;;;;8.70;6.28;;;16.00;99.90;;;;;;5060323;28;20025;-89
2021/06/08 00:34:36;;;;;;;6.72;5.82;;;16.00;99.90;;;;;;5058446;28;20036;-88
2021/06/08 00:37:02;;;;;;;6.38;5.78;;;15.90;99.90;;;;;;5059659;28;20021;-89
2021/06/08 00:39:28;;;;;;;6.53;5.45;;;15.90;99.90;;;;;;5060776;28;20088;-88
2021/06/08 00:41:53;;;;;;;6.13;5.57;;;15.90;99.90;;;;;;5061926;28;20067;-90
2021/06/08 00:44:19;;;;;;;5.70;4.90;;;15.80;99.90;;;;;;5059918;28;20033;-88
2021/06/08 00:46:46;;;;;;;5.90;5.28;;;15.80;99.90;;;;;;5059862;28;20041;-91
2021/06/08 00:49:14;;;;;;;6.43;5.25;;;15.70;99.90;;;;;;5059889;28;20021;-88
2021/06/08 00:51:40;;;;;;;6.13;5.50;;;15.70;99.90;;;;;;5061212;28;20028;-88
2021/06/08 00:54:10;;;;;;;6.00;5.43;;;15.70;99.90;;;;;;5059167;28;20056;-90
2021/06/08 00:56:38;;;;;;;7.32;6.50;;;15.60;99.90;;;;;;5059705;28;20478;-89
2021/06/08 00:59:05;;;;;;;7.40;5.78;;;15.60;99.90;;;;;;5058512;28;20025;-88
2021/06/08 01:01:31;;;;;;;6.40;5.80;;;15.60;99.90;;;;;;5059616;28;20029;-91
2021/06/08 01:03:57;;;;;;;5.60;5.10;;;15.50;99.90;;;;;;5059770;28;20500;-91
2021/06/08 01:06:22;;;;;;;6.35;5.75;;;15.50;99.90;;;;;;5060454;28;20029;-89
2021/06/08 01:08:48;;;;;;;7.57;6.40;;;15.60;99.90;;;;;;5059324;28;20381;-92
2021/06/08 01:11:15;;;;;;;6.85;6.15;;;15.50;99.90;;;;;;5057676;28;20508;-89
2021/06/08 01:13:42;;;;;;;6.00;5.50;;;15.60;99.90;;;;;;5059701;28;20088;-91
2021/06/08 01:16:09;;;;;;;6.97;6.22;;;15.60;99.90;;;;;;5061489;28;20052;-88
2021/06/08 01:18:34;;;;;;;7.05;6.45;;;15.60;99.90;;;;;;5061410;28;20029;-89
2021/06/08 01:21:08;;;;;;;7.78;6.13;;;15.70;99.90;;;;;;5059694;28;20036;-89
2021/06/08 01:23:34;;;;;;;6.63;5.57;;;15.70;99.90;;;;;;5054508;28;20021;-89
2021/06/08 01:26:01;;;;;;;7.13;6.43;;;15.80;99.90;;;;;;5055296;28;20030;-89
2021/06/08 01:28:27;;;;;;;7.93;6.07;;;15.80;99.90;;;;;;5056328;28;20032;-88
2021/06/08 01:30:54;;;;;;;6.43;5.82;;;15.90;99.90;;;;;;5057888;28;20025;-90
2021/06/08 01:33:22;;;;;;;7.68;6.05;;;15.90;99.90;;;;;;5058076;28;20025;-89
2021/06/08 01:35:49;;;;;;;6.50;5.90;;;15.90;99.90;;;;;;5058959;28;20108;-89
2021/06/08 01:38:16;;;;;;;6.18;5.57;;;16.00;99.90;;;;;;5057677;28;20025;-89
2021/06/08 01:40:44;;;;;;;6.15;5.55;;;16.00;99.90;;;;;;5056914;28;20056;-90
2021/06/08 01:43:12;;;;;;;6.20;5.45;;;16.00;99.90;;;;;;5061424;28;20466;-89
2021/06/08 01:45:40;;;;;;;5.95;5.35;;;16.00;99.90;;;;;;5059167;28;20375;-90
2021/06/08 01:48:06;;;;;;;5.40;4.85;;;16.10;99.90;;;;;;5058549;28;20036;-90
2021/06/08 01:50:32;;;;;;;7.93;5.90;;;16.10;99.90;;;;;;5061095;28;20112;-91
2021/06/08 01:53:12;;;;;;;7.20;6.18;;;16.10;99.90;;;;;;5060082;28;20485;-91
2021/06/08 01:55:44;;;;;;;6.13;5.53;;;16.10;99.90;;;;;;5062088;28;20090;-90
2021/06/08 01:58:37;;;;;;;5.72;5.22;;;16.20;99.90;;;;;;5063199;28;20067;-90
2021/06/08 02:01:15;;;;;;;7.07;5.97;;;16.20;99.90;;;;;;5062565;28;20126;-90
2021/06/08 02:04:02;;;;;;;6.25;5.63;;;16.20;99.90;;;;;;5062087;28;20032;-89
2021/06/08 02:06:51;;;;;;;6.95;5.65;;;16.30;99.90;;;;;;5066078;28;20032;-89
2021/06/08 02:09:20;;;;;;;7.90;6.03;;;16.30;99.90;;;;;;5063003;28;20028;-88
2021/06/08 02:12:18;;;;;;;6.80;5.78;;;16.30;99.90;;;;;;5062276;28;20048;-90
2021/06/08 02:14:52;;;;;;;7.40;6.70;;;16.30;99.90;;;;;;5018145;28;20033;-90
2021/06/08 02:17:25;;;;;;;7.43;6.50;;;16.40;99.90;;;;;;5062076;28;20032;-91
2021/06/08 02:19:56;;;;;;;6.38;5.85;;;16.40;99.90;;;;;;5064540;28;20088;-90
2021/06/08 02:22:24;;;;;;;6.57;5.93;;;16.40;99.90;;;;;;5062241;28;20457;-90
2021/06/08 02:24:51;;;;;;;7.20;6.60;;;16.40;99.90;;;;;;5061308;28;20025;-90
2021/06/08 02:27:21;;;;;;;6.72;6.13;;;16.40;99.90;;;;;;5060228;28;20111;-90
2021/06/08 02:29:49;;;;;;;7.70;6.90;;;16.40;99.90;;;;;;5061225;28;20033;-90
2021/06/08 02:32:16;;;;;;;6.90;6.25;;;16.40;99.90;;;;;;5061801;28;20374;-91
2021/06/08 02:34:43;;;;;;;10.25;6.45;;;16.50;99.90;;;;;;5061247;28;20116;-90
2021/06/08 02:37:12;;;;;;;7.03;6.32;;;16.50;99.90;;;;;;5059237;28;20037;-90
2021/06/08 02:39:42;;;;;;;7.88;6.68;;;16.60;99.90;;;;;;5061233;28;20082;-90
2021/06/08 02:42:12;;;;;;;7.38;6.68;;;16.60;99.90;;;;;;5061603;28;20553;-91
2021/06/08 02:44:41;;;;;;;7.55;6.85;;;16.70;99.90;;;;;;5063045;28;20022;-89
2021/06/08 02:47:07;;;;;;;8.48;7.35;;;16.70;99.90;;;;;;5061265;28;20048;-90
2021/06/08 02:49:34;;;;;;;7.25;6.60;;;16.70;99.90;;;;;;5058463;28;20593;-91
2021/06/08 02:52:01;;;;;;;6.88;6.18;;;16.80;99.90;;;;;;5058347;28;20032;-91
2021/06/08 02:54:28;;;;;;;7.70;6.95;;;16.80;99.90;;;;;;5059148;28;20051;-91
2021/06/08 02:56:55;;;;;;;8.10;7.30;;;16.90;99.90;;;;;;5059159;28;20021;-91
2021/06/08 02:59:22;;;;;;;7.97;7.20;;;16.90;99.90;;;;;;5058714;28;20036;-90
2021/06/08 03:01:52;;;;;;;7.32;6.63;;;17.00;99.90;;;;;;5057073;28;20032;-91
2021/06/08 03:04:21;;;;;;;6.50;5.90;;;17.10;99.90;;;;;;5055515;28;20116;-91
2021/06/08 03:07:10;;;;;;;7.70;6.35;;;17.20;99.90;;;;;;5058025;28;20044;-90
2021/06/08 03:10:09;;;;;;;7.30;6.70;;;17.20;99.90;;;;;;5044367;28;20060;-90
2021/06/08 03:12:40;;;;;;;7.32;6.43;;;17.30;99.90;;;;;;5055386;28;20033;-90
2021/06/08 03:15:07;;;;;;;8.07;7.28;;;17.30;99.90;;;;;;5063692;28;20112;-90
2021/06/08 03:17:35;;;;;;;7.40;6.70;;;17.30;99.90;;;;;;5060171;28;20040;-90
2021/06/08 03:20:11;;;;;;;6.93;6.32;;;17.20;99.90;;;;;;5059368;28;20071;-91
2021/06/08 03:22:41;;;;;;;8.52;6.60;;;17.20;99.90;;;;;;5061984;28;20025;-91
2021/06/08 03:25:09;;;;;;;7.80;7.10;;;17.20;99.90;;;;;;5063456;28;20033;-90
2021/06/08 03:27:36;;;;;;;7.38;6.68;;;17.20;99.90;;;;;;5061902;28;20108;-91
2021/06/08 03:30:04;;;;;;;8.00;7.22;;;17.30;99.90;;;;;;5063882;28;20389;-91
2021/06/08 03:32:30;;;;;;;8.35;7.55;;;17.50;99.90;;;;;;5061777;28;20096;-88
2021/06/08 03:34:57;;;;;;;8.98;7.50;;;17.60;99.90;;;;;;5059217;28;20025;-89
2021/06/08 03:37:25;;;;;;;6.97;6.38;;;17.70;99.90;;;;;;5058171;28;20033;-90
2021/06/08 03:39:52;;;;;;;8.52;7.25;;;17.80;99.90;;;;;;5060746;28;20032;-91
2021/06/08 03:42:19;;;;;;;9.88;7.20;;;17.90;99.90;;;;;;5060901;28;20036;-89
2021/06/08 03:44:45;;;;;;;7.22;6.60;;;18.00;99.90;;;;;;5058744;28;20489;-89
2021/06/08 03:47:11;;;;;;;7.10;6.40;;;18.10;99.90;;;;;;5059985;28;20487;-89
2021/06/08 03:49:38;;;;;;;6.80;6.15;;;18.20;99.90;;;;;;5059497;28;20120;-90
2021/06/08 03:52:04;;;;;;;8.93;6.43;;;18.40;99.90;;;;;;5063226;28;20037;-90
2021/06/08 03:54:30;;;;;;;7.35;6.53;;;18.50;99.90;;;;;;5061114;28;20033;-91
2021/06/08 03:56:59;;;;;;;8.30;6.25;;;18.60;99.90;;;;;;5060401;28;20096;-90
2021/06/08 03:59:28;;;;;;;6.82;6.18;;;18.60;99.90;;;;;;5059880;28;20052;-90
2021/06/08 04:01:54;;;;;;;9.85;6.55;;;18.60;99.90;;;;;;5064056;28;20036;-92
2021/06/08 04:04:22;;;;;;;7.03;6.20;;;18.70;99.90;;;;;;5059934;28;20070;-91
2021/06/08 04:06:51;;;;;;;6.65;6.05;;;18.70;99.90;;;;;;5060239;28;20131;-91
2021/06/08 04:09:18;;;;;;;7.20;6.45;;;18.70;99.90;;;;;;5059098;28;20018;-89
2021/06/08 04:11:49;;;;;;;7.22;6.53;;;18.60;99.90;;;;;;5059371;28;20485;-90
2021/06/08 04:14:15;;;;;;;6.80;6.20;;;18.60;99.90;;;;;;5059350;28;20056;-90
2021/06/08 04:16:41;;;;;;;6.93;6.22;;;18.60;99.90;;;;;;5059165;28;20033;-89
2021/06/08 04:19:11;;;;;;;7.07;6.20;;;18.50;99.90;;;;;;5059634;28;20040;-90
2021/06/08 04:21:41;;;;;;;6.30;5.70;;;18.50;99.90;;;;;;5059471;28;20442;-90
2021/06/08 04:24:07;;;;;;;6.13;5.53;;;18.40;99.90;;;;;;5059479;28;20093;-90
2021/06/08 04:26:34;;;;;;;5.80;5.05;;;18.40;99.90;;;;;;5060068;28;20021;-90
2021/06/08 04:29:00;;;;;;;8.13;5.60;;;18.40;99.90;;;;;;5060133;28;20048;-90
2021/06/08 04:31:27;;;;;;;7.07;5.88;;;18.40;99.90;;;;;;5061853;28;20029;-90
2021/06/08 04:33:53;;;;;;;7.32;6.15;;;18.40;99.90;;;;;;5058626;28;20033;-89
2021/06/08 04:36:19;;;;;;;7.18;6.05;;;18.40;99.90;;;;;;5058775;28;20029;-90
2021/06/08 04:38:47;;;;;;;6.35;5.32;;;18.40;99.90;;;;;;5061631;28;20033;-91
2021/06/08 04:41:13;;;;;;;6.50;5.80;;;18.40;99.90;;;;;;5058906;28;20031;-90
2021/06/08 04:43:41;;;;;;;7.55;6.90;;;18.40;99.90;;;;;;5061846;28;20029;-90
2021/06/08 04:46:12;;;;;;;6.32;5.72;;;18.40;99.90;;;;;;5061660;28;20458;-90
2021/06/08 04:48:39;;;;;;;8.13;6.05;;;18.50;99.90;;;;;;5062454;28;20041;-90
2021/06/08 04:51:05;;;;;;;6.57;5.95;;;18.60;99.90;;;;;;5058296;28;20036;-90
2021/06/08 04:53:31;;;;;;;6.60;5.88;;;18.70;99.90;;;;;;5062982;28;20009;-90
2021/06/08 04:55:57;;;;;;;5.97;5.38;;;18.90;99.90;;;;;;5059708;28;20029;-90
2021/06/08 04:58:24;;;;;;;6.00;5.30;;;19.10;99.90;;;;;;5062018;28;20025;-89
2021/06/08 05:01:16;;;;;;;6.20;5.70;;;19.30;99.90;;;;;;5059225;28;20029;-90
2021/06/08 05:03:46;;;;;;;5.97;5.45;;;19.50;99.90;;;;;;5058453;28;20025;-91
2021/06/08 05:06:18;;;;;;;6.25;5.65;;;19.70;99.60;;;;;;5056923;28;20033;-90
2021/06/08 05:08:50;;;;;;;6.70;6.10;;;20.10;99.40;;;;;;5054461;28;20068;-89
2021/06/08 05:11:20;;;;;;;6.68;6.07;;;20.60;99.00;;;;;;5066951;28;20029;-92
2021/06/08 05:13:49;;;;;;;5.82;5.32;;;21.10;98.40;;;;;;5061182;28;20033;-92
2021/06/08 05:16:17;;;;;;;5.78;5.15;;;21.70;98.30;;;;;;5056222;28;20496;-92
2021/06/08 05:18:45;;;;;;;6.35;5.45;;;22.20;97.60;;;;;;5039194;28;20029;-90
2021/06/08 05:21:14;;;;;;;5.88;5.05;;;22.80;96.70;;;;;;5055980;28;20094;-90
2021/06/08 05:23:41;;;;;;;6.38;4.50;;;23.30;94.10;;;;;;5055621;28;20035;-92
2021/06/08 05:26:07;;;;;;;4.47;3.92;;;23.60;92.20;;;;;;5068329;28;20025;-91
2021/06/08 05:28:42;;;;;;;5.38;3.83;;;23.80;91.30;;;;;;5075092;28;20079;-91
2021/06/08 05:31:09;;;;;;;6.57;4.00;;;24.10;89.00;;;;;;5065259;28;20462;-91
2021/06/08 05:33:38;;;;;;;4.28;3.88;;;24.20;87.10;;;;;;5054764;28;20445;-94
2021/06/08 05:36:06;;;;;;;4.35;3.83;;;24.40;85.90;;;;;;5058803;28;20025;-91
2021/06/08 05:39:07;;;;;;;4.70;4.30;;;24.60;84.70;;;;;;5130114;27;20856;-86
2021/06/08 05:41:36;;;;;;;9.50;4.43;;;24.70;80.80;;;;;;5122443;28;20043;-87
2021/06/08 05:44:03;;;;;;;4.18;3.78;;;24.80;80.10;;;;;;5124876;28;20031;-89
2021/06/08 05:46:33;;;;;;;4.80;3.47;;;24.90;79.80;;;;;;5118935;28;20024;-89
2021/06/08 05:49:01;;;;;;;3.83;3.53;;;24.90;78.60;;;;;;5109980;28;20032;-89
2021/06/08 05:51:30;;;;;;;3.83;3.40;;;24.80;77.90;;;;;;5108220;28;20028;-90
2021/06/08 05:53:56;;;;;;;5.43;3.30;;;24.70;77.80;;;;;;5105867;28;20031;-89
2021/06/08 05:56:24;;;;;;;3.67;3.35;;;24.70;78.10;;;;;;5122717;22;20052;-91
2021/06/08 05:58:58;;;;;;;3.67;3.38;;;24.80;77.90;;;;;;5099024;28;20016;-93
2021/06/08 06:01:26;;;;;;;4.00;3.50;;;24.90;76.70;;;;;;5095803;28;20082;-92
2021/06/08 06:03:53;;;;;;;3.95;3.65;;;25.20;78.00;;;;;;5098170;28;20097;-91
2021/06/08 06:06:20;;;;;;;4.13;3.72;;;25.70;77.60;;;;;;5101491;28;20032;-92
2021/06/08 06:08:46;;;;;;;4.00;3.70;;;26.10;76.80;;;;;;5093602;22;20023;-87
2021/06/08 06:11:16;;;;;;;4.32;3.92;;;26.50;75.40;;;;;;5069125;28;20059;-87
2021/06/08 06:14:00;;;;;;;4.20;3.60;;;26.90;74.00;;;;;;5070501;28;20058;-88
2021/06/08 06:16:26;;;;;;;5.32;3.80;;;27.40;71.50;;;;;;5069016;28;20103;-89
2021/06/08 06:18:52;;;;;;;5.53;3.60;;;27.70;70.60;;;;;;5065090;28;20456;-87
2021/06/08 06:21:19;;;;;;;3.50;3.20;;;28.10;70.10;;;;;;5066134;28;20024;-88
2021/06/08 06:23:45;;;;;;;3.13;2.83;;;28.60;69.10;;;;;;5093103;28;20020;-89
2021/06/08 06:26:11;;;;;;;3.85;3.40;;;28.90;67.60;;;;;;5095058;28;20016;-89
2021/06/08 06:28:39;;;;;;;4.05;3.00;;;29.00;65.10;;;;;;5110894;28;20029;-88
2021/06/08 06:31:09;;;;;;;2.90;2.70;;;29.20;65.10;;;;;;5069483;28;20024;-88
2021/06/08 06:33:35;;;;;;;4.10;2.90;;;29.60;64.50;;;;;;5068962;28;20389;-89
2021/06/08 06:36:02;;;;;;;4.18;3.03;;;29.70;64.10;;;;;;5069582;28;20394;-89
2021/06/08 06:38:30;;;;;;;4.10;3.10;;;29.90;63.00;;;;;;5067532;28;20045;-89
2021/06/08 06:41:00;;;;;;;2.70;2.50;;;30.00;62.50;;;;;;5068157;28;20028;-89
2021/06/08 06:43:28;;;;;;;5.72;2.90;;;30.20;61.80;;;;;;5068524;28;20027;-88
2021/06/08 06:45:54;;;;;;;3.17;2.88;;;30.50;61.20;;;;;;5067164;28;20059;-88
2021/06/08 06:48:20;;;;;;;4.85;2.72;;;30.60;60.30;;;;;;5083231;28;20052;-89
2021/06/08 06:50:47;;;;;;;3.90;3.00;;;31.00;60.00;;;;;;5058317;28;20029;-89
2021/06/08 06:53:17;;;;;;;2.65;2.30;;;31.20;58.50;;;;;;5075009;28;20074;-88
2021/06/08 06:55:46;;;;;;;2.67;2.47;;;31.30;56.60;;;;;;5056215;28;20051;-88
2021/06/08 06:58:12;;;;;;;3.10;2.78;;;31.40;57.90;;;;;;5074003;28;20047;-89
2021/06/08 07:00:37;;;;;;;2.83;2.55;;;31.80;57.50;;;;;;5056749;28;20020;-88
2021/06/08 07:03:06;;;;;;;2.50;2.30;;;32.20;57.00;;;;;;5058733;28;20384;-90
2021/06/08 07:05:32;;;;;;;2.50;2.30;;;32.40;55.90;;;;;;5056583;28;20067;-89
2021/06/08 07:08:02;;;;;;;2.80;2.60;;;32.70;55.60;;;;;;5056400;28;20036;-88
2021/06/08 07:10:28;;;;;;;3.35;2.40;;;32.90;54.60;;;;;;5058247;28;20043;-89
2021/06/08 07:12:55;;;;;;;2.40;2.20;;;32.90;54.90;;;;;;5064943;28;20028;-89
2021/06/08 07:15:28;;;;;;;3.67;2.30;;;33.20;54.50;;;;;;5057049;28;20028;-89
2021/06/08 07:17:54;;;;;;;2.23;2.07;;;33.50;53.90;;;;;;5057553;28;20040;-88
2021/06/08 07:20:22;;;;;;;3.50;2.38;;;33.50;53.60;;;;;;5060428;28;20046;-88
2021/06/08 07:22:49;;;;;;;2.70;2.50;;;33.60;53.30;;;;;;5063671;28;20600;-88
2021/06/08 07:25:18;;;;;;;3.67;2.50;;;33.60;52.90;;;;;;5060277;28;20036;-87
2021/06/08 07:27:45;;;;;;;2.42;2.22;;;33.90;53.00;;;;;;5067194;28;20036;-87
2021/06/08 07:30:13;;;;;;;2.47;2.28;;;34.60;52.70;;;;;;5081689;28;20047;-87
2021/06/08 07:33:13;;;;;;;3.17;2.15;;;35.20;52.00;;;;;;5082206;28;20028;-88
2021/06/08 07:36:02;;;;;;;2.20;2.00;;;35.70;50.30;;;;;;5059309;28;20037;-88
2021/06/08 07:38:34;;;;;;;2.38;1.95;;;36.20;50.70;;;;;;5058637;28;20512;-89
2021/06/08 07:41:04;;;;;;;2.20;2.00;;;36.60;49.80;;;;;;5062563;28;20004;-89
2021/06/08 07:43:52;;;;;;;2.75;1.98;;;37.20;48.80;;;;;;5065397;28;20225;-88
2021/06/08 07:46:20;;;;;;;3.08;2.40;;;37.80;45.40;;;;;;5054419;28;20016;-86
2021/06/08 07:48:51;;;;;;;2.53;2.33;;;37.80;47.80;;;;;;5056226;28;20535;-87
2021/06/08 07:51:17;;;;;;;3.45;2.22;;;37.80;47.40;;;;;;5055427;28;20028;-87
2021/06/08 07:53:44;;;;;;;3.85;2.20;;;37.90;47.30;;;;;;5054358;28;20082;-88
2021/06/08 07:56:12;;;;;;;1.95;1.85;;;37.90;46.70;;;;;;5057952;28;20032;-87
2021/06/08 07:58:39;;;;;;;3.47;3.17;;;37.90;46.60;;;;;;5056847;28;20036;-87
2021/06/08 08:01:05;;;;;;;2.30;2.03;;;38.10;47.30;;;;;;5056407;28;20017;-88
2021/06/08 08:03:32;;;;;;;2.08;1.98;;;38.40;45.80;;;;;;5058446;28;20389;-88
2021/06/08 08:06:09;;;;;;;3.75;2.08;;;38.60;45.80;;;;;;5054799;28;20021;-88
2021/06/08 08:08:35;;;;;;;3.05;1.67;;;38.10;44.20;;;;;;5065185;28;20016;-87
2021/06/08 08:11:05;;;;;;;4.03;1.90;;;37.60;45.10;;;;;;5079127;28;20017;-88
2021/06/08 08:13:32;;;;;;;1.92;1.83;;;37.50;45.40;;;;;;5097167;28;20001;-88
2021/06/08 08:16:02;;;;;;;2.20;1.80;;;37.80;45.60;;;;;;5063065;28;20043;-89
2021/06/08 08:18:30;;;;;;;3.67;1.98;;;38.30;45.00;;;;;;5073566;28;20037;-89
2021/06/08 08:20:56;;;;;;;3.13;1.90;;;38.70;44.00;;;;;;5055542;28;20031;-89
2021/06/08 08:23:31;;;;;;;2.22;1.80;;;39.00;43.40;;;;;;5055955;28;20027;-89
2021/06/08 08:26:06;;;;;;;1.65;1.55;;;38.90;41.80;;;;;;5056795;28;20142;-88
2021/06/08 08:28:33;;;;;;;1.50;1.40;;;39.00;42.90;;;;;;5057122;28;20024;-88
2021/06/08 08:31:01;;;;;;;3.85;1.75;;;38.90;42.70;;;;;;5040838;28;20115;-88
2021/06/08 08:33:29;;;;;;;3.70;2.17;;;38.90;42.80;;;;;;5057809;28;20115;-89
2021/06/08 08:35:55;;;;;;;3.08;1.92;;;38.90;42.80;;;;;;5056406;28;20393;-89
2021/06/08 08:38:21;;;;;;;2.00;1.90;;;39.00;42.40;;;;;;5055673;28;20127;-89
2021/06/08 08:40:48;;;;;;;2.22;2.05;;;38.70;42.30;;;;;;5056205;28;20028;-89
2021/06/08 08:43:13;;;;;;;1.80;1.70;;;38.50;42.30;;;;;;5059682;28;20451;-88
2021/06/08 08:45:39;;;;;;;1.95;1.85;;;38.20;42.00;;;;;;5055804;28;20052;-88
2021/06/08 08:48:05;;;;;;;5.95;1.98;;;37.80;42.50;;;;;;5074789;28;20426;-90
2021/06/08 08:50:32;;;;;;;2.10;2.00;;;37.50;42.50;;;;;;5057043;28;20485;-87
2021/06/08 08:53:04;;;;;;;1.80;1.70;;;37.20;42.40;;;;;;5056669;28;20024;-90
2021/06/08 08:55:41;;;;;;;2.17;1.90;;;36.90;42.40;;;;;;5054239;28;20028;-89
2021/06/08 08:58:07;;;;;;;1.70;1.60;;;36.80;42.80;;;;;;5039237;28;20037;-89
2021/06/08 09:00:34;;;;;;;3.22;1.55;;;36.90;42.50;;;;;;5059566;28;20091;-88
2021/06/08 09:03:04;;;;;;;1.75;1.65;;;36.70;42.70;;;;;;5055619;28;20029;-89
2021/06/08 09:05:35;;;;;;;1.70;1.60;;;36.50;42.60;;;;;;5056692;28;20042;-89
2021/06/08 09:08:02;;;;;;;2.13;1.80;;;36.10;42.70;;;;;;5057632;28;20098;-90
2021/06/08 09:10:34;;;;;;;1.95;1.85;;;36.00;43.10;;;;;;5075066;28;20043;-89
2021/06/08 09:13:02;;;;;;;1.55;1.45;;;36.20;43.90;;;;;;5053046;28;20064;-88
2021/06/08 09:15:28;;;;;;;2.55;1.70;;;36.50;43.60;;;;;;5051608;28;20025;-89
2021/06/08 09:17:56;;;;;;;1.80;1.70;;;36.70;42.80;;;;;;5053708;28;20432;-88
2021/06/08 09:20:22;;;;;;;1.98;1.50;;;37.10;43.00;;;;;;5050805;28;20028;-89
2021/06/08 09:23:03;;;;;;;1.77;1.48;;;37.70;42.50;;;;;;5070574;28;20543;-90
2021/06/08 09:25:37;;;;;;;1.40;1.30;;;38.30;41.60;;;;;;5067103;28;20024;-89
2021/06/08 09:28:35;;;;;;;2.15;1.40;;;38.00;40.70;;;;;;5053439;28;20060;-89
2021/06/08 09:31:23;;;;;;;1.40;1.30;;;37.00;40.50;;;;;;5054693;28;20033;-88
2021/06/08 09:33:53;;;;;;;1.70;1.45;;;36.20;42.00;;;;;;5036658;28;20028;-88
2021/06/08 09:36:24;;;;;;;3.28;1.50;;;36.10;42.80;;;;;;5066164;28;20036;-89
2021/06/08 09:39:00;;;;;;;2.33;1.30;;;35.90;41.70;;;;;;5076260;28;20038;-89
2021/06/08 09:41:25;;;;;;;3.53;1.48;;;35.40;41.30;;;;;;5074829;28;20039;-88
2021/06/08 09:43:56;;;;;;;1.67;1.10;;;35.10;42.30;;;;;;5057774;28;20033;-89
2021/06/08 09:46:26;;;;;;;2.00;1.30;;;35.30;42.40;;;;;;5054107;28;20414;-90
2021/06/08 09:48:59;;;;;;;1.70;1.60;;;35.50;42.00;;;;;;5053478;28;20115;-88
2021/06/08 09:51:26;;;;;;;3.50;1.67;;;35.90;42.10;;;;;;5035498;28;20078;-87
2021/06/08 09:53:52;;;;;;;2.20;2.00;;;36.70;41.90;;;;;;5053092;28;20444;-87
2021/06/08 09:56:21;;;;;;;1.95;1.83;;;37.50;41.60;;;;;;5056785;28;20025;-89
2021/06/08 09:58:51;;;;;;;1.75;1.45;;;38.10;40.60;;;;;;5054454;28;20448;-88
2021/06/08 10:01:21;;;;;;;1.50;1.40;;;38.10;39.80;;;;;;5055585;28;20078;-87
2021/06/08 10:03:57;;;;;;;3.70;1.85;;;38.00;40.00;;;;;;5055772;28;20073;-87
2021/06/08 10:06:34;;;;;;;1.45;1.35;;;37.40;39.30;;;;;;5055682;28;20028;-87
2021/06/08 10:09:22;;;;;;;3.08;1.73;;;36.40;40.00;;;;;;5071708;28;20035;-87
2021/06/08 10:12:03;;;;;;;2.72;1.58;;;36.00;41.10;;;;;;5080234;28;20008;-88
2021/06/08 10:14:39;;;;;;;1.55;1.45;;;35.90;40.80;;;;;;5077078;28;20032;-88
2021/06/08 10:17:10;;;;;;;3.15;1.25;;;35.70;40.80;;;;;;5057826;28;20064;-87
2021/06/08 10:19:35;;;;;;;3.03;1.40;;;35.10;40.80;;;;;;5055204;28;20039;-89
2021/06/08 10:22:02;;;;;;;1.90;1.40;;;34.60;41.30;;;;;;5054830;28;20016;-88
2021/06/08 10:24:28;;;;;;;1.70;1.45;;;34.10;41.70;;;;;;5056574;28;20033;-89
2021/06/08 10:26:56;;;;;;;1.38;1.27;;;33.20;42.30;;;;;;5058313;28;20124;-89
2021/06/08 10:29:24;;;;;;;1.45;1.35;;;32.30;43.60;;;;;;5056019;28;20557;-87
2021/06/08 10:31:52;;;;;;;2.58;2.10;;;31.40;44.60;;;;;;5055415;28;20411;-88
2021/06/08 10:34:18;;;;;;;2.65;1.90;;;30.70;45.80;;;;;;5058269;28;20040;-89
2021/06/08 10:36:44;;;;;;;2.28;1.98;;;30.00;47.00;;;;;;5060100;28;20024;-90
2021/06/08 10:39:13;;;;;;;1.95;1.80;;;29.40;48.40;;;;;;5075415;28;20126;-89
2021/06/08 10:41:46;;;;;;;1.90;1.80;;;28.60;49.60;;;;;;5054364;28;20332;-89
2021/06/08 10:44:23;;;;;;;3.07;2.20;;;28.00;51.30;;;;;;5055766;28;20067;-89
2021/06/08 10:46:52;;;;;;;2.42;2.20;;;27.40;53.90;;;;;;5055887;28;20020;-89
2021/06/08 10:49:31;;;;;;;4.22;2.20;;;26.50;54.70;;;;;;5054648;28;20024;-89
2021/06/08 10:52:04;;;;;;;5.15;1.95;;;25.90;55.50;;;;;;5054538;28;20024;-89
2021/06/08 10:54:47;;;;;;;2.50;1.90;;;25.30;56.50;;;;;;5055751;28;20389;-89
2021/06/08 10:57:14;;;;;;;1.92;1.73;;;24.80;59.00;;;;;;5055830;28;20098;-89
2021/06/08 10:59:45;;;;;;;1.70;1.60;;;24.30;59.10;;;;;;5056193;28;20035;-89
2021/06/08 11:02:13;;;;;;;2.38;1.83;;;23.90;60.50;;;;;;5057599;28;20127;-90
2021/06/08 11:04:54;;;;;;;1.85;1.70;;;23.50;62.10;;;;;;5057482;28;20033;-90
2021/06/08 11:07:49;;;;;;;4.43;2.10;;;23.30;64.40;;;;;;5057932;28;20017;-89
2021/06/08 11:10:28;;;;;;;2.85;2.42;;;23.20;66.60;;;;;;5059116;28;20068;-89
2021/06/08 11:13:09;;;;;;;5.20;2.90;;;23.20;66.40;;;;;;5058455;28;20029;-90
2021/06/08 11:15:36;;;;;;;5.78;2.58;;;23.10;68.30;;;;;;5056320;28;20036;-90
2021/06/08 11:18:22;;;;;;;3.97;2.78;;;23.10;66.10;;;;;;5053967;28;20033;-90
2021/06/08 11:21:11;;;;;;;5.07;3.20;;;23.10;71.60;;;;;;5054318;28;20029;-89
2021/06/08 11:23:43;;;;;;;3.53;2.78;;;23.50;68.50;;;;;;5054597;28;20020;-90
2021/06/08 11:26:17;;;;;;;3.08;2.78;;;24.50;69.70;;;;;;5055197;28;20025;-89
2021/06/08 11:28:46;;;;;;;2.88;2.65;;;25.60;69.10;;;;;;5055715;28;20052;-90
2021/06/08 11:31:17;;;;;;;2.60;2.40;;;26.50;65.90;;;;;;5074062;28;20044;-89
2021/06/08 11:33:47;;;;;;;4.25;2.42;;;26.80;64.60;;;;;;5056038;28;20033;-90
2021/06/08 11:36:18;;;;;;;2.65;2.45;;;27.10;63.50;;;;;;5056073;28;20105;-90
2021/06/08 11:38:46;;;;;;;2.30;2.10;;;27.10;62.90;;;;;;5066072;28;20032;-89
2021/06/08 11:41:12;;;;;;;2.15;2.00;;;27.10;61.40;;;;;;5072415;28;20100;-89
2021/06/08 11:43:37;;;;;;;3.05;1.50;;;26.80;60.70;;;;;;5066753;28;20020;-90
2021/06/08 11:46:07;;;;;;;1.52;1.42;;;26.40;60.40;;;;;;5057921;28;20462;-89
2021/06/08 11:48:35;;;;;;;1.70;1.60;;;26.10;60.90;;;;;;5056573;28;20021;-90
2021/06/08 11:51:02;;;;;;;1.50;1.40;;;25.90;60.50;;;;;;5057371;28;20098;-90
2021/06/08 11:53:28;;;;;;;1.38;1.27;;;25.60;60.40;;;;;;5056901;28;20024;-90
2021/06/08 11:56:11;;;;;;;1.58;1.48;;;25.30;60.80;;;;;;5054394;28;20128;-89
2021/06/08 11:58:39;;;;;;;1.40;1.30;;;25.00;61.70;;;;;;5053866;28;20047;-89
2021/06/08 12:01:07;;;;;;;1.83;1.35;;;24.90;61.50;;;;;;5051707;28;20532;-89
2021/06/08 12:03:38;;;;;;;1.40;1.30;;;25.00;61.60;;;;;;5056856;28;20029;-88
2021/06/08 12:06:06;;;;;;;1.20;1.10;;;25.10;61.80;;;;;;5055009;28;20028;-89
2021/06/08 12:08:33;;;;;;;1.35;1.25;;;25.40;61.90;;;;;;5057628;28;20476;-89
2021/06/08 12:11:18;;;;;;;1.45;1.35;;;25.80;61.50;;;;;;5057364;28;20028;-89
2021/06/08 12:13:44;;;;;;;1.83;1.35;;;26.30;60.30;;;;;;5054579;28;20037;-89
2021/06/08 12:16:15;;;;;;;1.60;1.50;;;26.80;60.30;;;;;;5056859;28;20033;-89
2021/06/08 12:18:41;;;;;;;1.67;1.30;;;27.10;59.50;;;;;;5059138;28;20043;-89
2021/06/08 12:21:14;;;;;;;1.40;1.30;;;27.50;59.00;;;;;;5060787;28;20483;-90
2021/06/08 12:23:41;;;;;;;1.65;1.17;;;28.10;59.30;;;;;;5064041;28;20041;-90
2021/06/08 12:26:18;;;;;;;1.45;1.35;;;28.70;57.90;;;;;;5065144;28;20032;-89
2021/06/08 12:29:05;;;;;;;1.55;1.20;;;29.40;56.50;;;;;;5063943;28;20075;-88
2021/06/08 12:31:35;;;;;;;1.27;1.23;;;30.20;55.30;;;;;;5049050;28;20499;-90
2021/06/08 12:34:09;;;;;;;1.20;1.20;;;30.80;55.00;;;;;;5064442;28;20032;-89
2021/06/08 12:36:38;;;;;;;1.45;1.25;;;31.60;54.20;;;;;;5065574;28;20067;-89
2021/06/08 12:39:11;;;;;;;1.42;1.33;;;32.50;53.10;;;;;;5064849;28;20079;-90
2021/06/08 12:41:37;;;;;;;1.35;1.10;;;33.30;51.70;;;;;;5077449;28;20020;-90
2021/06/08 12:44:03;;;;;;;1.17;1.17;;;33.90;51.30;;;;;;5060551;28;20032;-90
2021/06/08 12:46:36;;;;;;;1.92;1.30;;;34.30;49.60;;;;;;5058239;28;20033;-90
2021/06/08 12:49:17;;;;;;;1.73;1.27;;;34.00;48.70;;;;;;5055084;28;20166;-90
2021/06/08 12:51:44;;;;;;;1.20;1.10;;;33.80;49.20;;;;;;5057360;28;20083;-90
2021/06/08 12:54:38;;;;;;;1.77;1.42;;;34.00;49.10;;;;;;5056886;28;20024;-89
2021/06/08 12:57:07;;;;;;;1.60;1.48;;;34.30;47.60;;;;;;5058465;28;20032;-90
2021/06/08 12:59:48;;;;;;;1.10;1.10;;;34.40;47.60;;;;;;5056025;28;20085;-90
2021/06/08 13:02:15;;;;;;;1.42;1.20;;;34.60;47.20;;;;;;5057038;28;20068;-89